createdAt,value
2022-08-21T00:00:20.391Z,101340.19
2022-08-21T00:03:17.339Z,101327.81
2022-08-21T00:06:01.436Z,101326.13
2022-08-21T00:08:49.213Z,101326.13
2022-08-21T00:11:34.471Z,101324.41
2022-08-21T00:14:23.317Z,101327.13
2022-08-21T00:17:04.486Z,101321.84
2022-08-21T00:19:51.383Z,101321.91
2022-08-21T00:22:45.640Z,101323.75
2022-08-21T00:25:34.300Z,101320.25
2022-08-21T00:28:18.957Z,101318.53
2022-08-21T00:31:09.925Z,101317.72
2022-08-21T00:33:53.059Z,101316.00
2022-08-21T00:36:49.373Z,101309.91
2022-08-21T00:39:31.011Z,101304.63
2022-08-21T00:42:21.428Z,101307.31
2022-08-21T00:45:02.227Z,101302.91
2022-08-21T00:47:50.946Z,101307.38
2022-08-21T00:50:39.608Z,101310.94
2022-08-21T00:53:27.786Z,101320.56
2022-08-21T00:56:10.249Z,101319.69
2022-08-21T00:59:03.371Z,101315.34
2022-08-21T01:01:45.372Z,101314.50
2022-08-21T01:04:34.097Z,101313.56
2022-08-21T01:07:16.347Z,101303.97
2022-08-21T01:10:06.419Z,101300.47
2022-08-21T01:12:48.999Z,101292.56
2022-08-21T01:15:39.459Z,101297.84
2022-08-21T01:18:21.286Z,101289.03
2022-08-21T01:21:15.388Z,101285.53
2022-08-21T01:24:00.728Z,101285.53
2022-08-21T01:26:49.160Z,101287.38
2022-08-21T01:29:55.260Z,101292.66
2022-08-21T01:32:44.389Z,101298.78
2022-08-21T01:35:27.259Z,101296.16
2022-08-21T01:38:17.095Z,101290.84
2022-08-21T01:40:58.259Z,101307.59
2022-08-21T01:43:46.393Z,101310.16
2022-08-21T01:46:27.771Z,101311.97
2022-08-21T01:49:16.266Z,101299.66
2022-08-21T01:51:57.398Z,101301.41
2022-08-21T01:54:46.408Z,101299.66
2022-08-21T01:57:36.683Z,101298.09
2022-08-21T02:00:28.977Z,101306.09
2022-08-21T02:03:11.024Z,101305.09
2022-08-21T02:05:58.401Z,101300.72
2022-08-21T02:08:40.482Z,101300.81
2022-08-21T02:11:28.926Z,101306.13
2022-08-21T02:14:10.279Z,101311.31
2022-08-21T02:17:08.800Z,101307.06
2022-08-21T02:19:50.691Z,101311.59
2022-08-21T02:22:37.800Z,101310.78
2022-08-21T02:25:19.440Z,101316.97
2022-08-21T02:28:12.420Z,101317.88
2022-08-21T02:30:56.447Z,101326.69
2022-08-21T02:33:43.530Z,101325.84
2022-08-21T02:36:25.896Z,101324.09
2022-08-21T02:39:13.416Z,101323.22
2022-08-21T02:41:54.467Z,101322.38
2022-08-21T02:44:43.448Z,101310.06
2022-08-21T02:47:25.596Z,101321.53
2022-08-21T02:50:15.465Z,101322.38
2022-08-21T02:53:00.718Z,101330.38
2022-08-21T02:55:48.288Z,101325.91
2022-08-21T02:58:36.334Z,101307.34
2022-08-21T03:01:23.471Z,101309.19
2022-08-21T03:04:06.636Z,101301.28
2022-08-21T03:06:53.685Z,101304.00
2022-08-21T03:09:35.759Z,101310.19
2022-08-21T03:12:23.439Z,101300.53
2022-08-21T03:15:07.777Z,101289.97
2022-08-21T03:17:55.663Z,101293.50
2022-08-21T03:20:50.367Z,101290.00
2022-08-21T03:23:41.035Z,101288.28
2022-08-21T03:26:23.823Z,101291.81
2022-08-21T03:29:11.694Z,101296.19
2022-08-21T03:31:53.437Z,101282.94
2022-08-21T03:34:40.646Z,101279.41
2022-08-21T03:37:22.854Z,101287.31
2022-08-21T03:40:15.870Z,101290.84
2022-08-21T03:42:57.001Z,101277.56
2022-08-21T03:45:47.433Z,101279.34
2022-08-21T03:48:29.767Z,101274.09
2022-08-21T03:51:19.531Z,101271.50
2022-08-21T03:54:02.348Z,101275.88
2022-08-21T03:56:50.529Z,101282.91
2022-08-21T03:59:31.429Z,101271.44
2022-08-21T04:02:19.868Z,101266.22
2022-08-21T04:05:00.411Z,101265.34
2022-08-21T04:07:47.492Z,101270.63
2022-08-21T04:10:28.772Z,101272.38
2022-08-21T04:13:17.315Z,101276.78
2022-08-21T04:15:58.361Z,101268.91
2022-08-21T04:18:50.453Z,101274.16
2022-08-21T04:21:46.395Z,101268.00
2022-08-21T04:24:35.654Z,101270.63
2022-08-21T04:27:16.437Z,101274.13
2022-08-21T04:30:04.455Z,101274.19
2022-08-21T04:32:45.733Z,101272.44
2022-08-21T04:35:34.660Z,101266.28
2022-08-21T04:38:19.419Z,101262.72
2022-08-21T04:41:07.488Z,101271.47
2022-08-21T04:43:48.362Z,101260.06
2022-08-21T04:46:35.519Z,101258.31
2022-08-21T04:49:16.396Z,101282.06
2022-08-21T04:52:04.667Z,101290.00
2022-08-21T04:54:45.776Z,101280.31
2022-08-21T04:57:48.254Z,101282.16
2022-08-21T05:00:32.757Z,101284.75
2022-08-21T05:03:23.505Z,101284.75
2022-08-21T05:06:04.765Z,101289.13
2022-08-21T05:08:58.827Z,101286.47
2022-08-21T05:11:44.395Z,101283.00
2022-08-21T05:14:34.104Z,101291.84
2022-08-21T05:17:16.202Z,101295.28
2022-08-21T05:20:04.341Z,101289.13
2022-08-21T05:22:51.443Z,101281.97
2022-08-21T05:25:32.489Z,101289.56
2022-08-21T05:28:23.529Z,101293.06
2022-08-21T05:31:04.887Z,101296.63
2022-08-21T05:33:53.115Z,101295.84
2022-08-21T05:36:36.510Z,101308.19
2022-08-21T05:39:26.427Z,101291.50
2022-08-21T05:42:07.625Z,101300.31
2022-08-21T05:44:54.458Z,101301.16
2022-08-21T05:47:35.497Z,101307.38
2022-08-21T05:50:24.393Z,101297.78
2022-08-21T05:53:10.874Z,101308.31
2022-08-21T05:55:58.521Z,101321.50
2022-08-21T05:58:40.528Z,101323.28
2022-08-21T06:01:28.490Z,101319.75
2022-08-21T06:04:12.819Z,101322.41
2022-08-21T06:07:00.492Z,101327.66
2022-08-21T06:09:41.664Z,101322.31
2022-08-21T06:12:30.443Z,101322.25
2022-08-21T06:15:12.987Z,101320.41
2022-08-21T06:18:02.445Z,101317.84
2022-08-21T06:20:50.418Z,101322.22
2022-08-21T06:23:47.235Z,101318.63
2022-08-21T06:26:34.592Z,101310.59
2022-08-21T06:29:18.670Z,101313.91
2022-08-21T06:32:09.464Z,101315.41
2022-08-21T06:34:51.648Z,101311.50
2022-08-21T06:37:39.602Z,101292.44
2022-08-21T06:40:20.518Z,101280.47
2022-08-21T06:43:20.525Z,101287.03
2022-08-21T06:46:02.603Z,101304.34
2022-08-21T06:48:50.526Z,101296.09
2022-08-21T06:51:38.458Z,101308.28
2022-08-21T06:54:26.571Z,101319.66
2022-08-21T06:57:07.907Z,101320.53
2022-08-21T06:59:56.439Z,101318.84
2022-08-21T07:02:37.911Z,101316.25
2022-08-21T07:05:36.779Z,101316.50
2022-08-21T07:08:17.955Z,101313.94
2022-08-21T07:11:14.037Z,101309.47
2022-08-21T07:13:55.416Z,101314.63
2022-08-21T07:16:45.575Z,101311.03
2022-08-21T07:19:51.661Z,101314.53
2022-08-21T07:22:45.430Z,101305.75
2022-08-21T07:25:34.244Z,101295.16
2022-08-21T07:28:15.601Z,101294.16
2022-08-21T07:31:05.537Z,101293.03
2022-08-21T07:33:48.103Z,101295.38
2022-08-21T07:36:36.622Z,101296.81
2022-08-21T07:39:18.774Z,101295.59
2022-08-21T07:42:08.495Z,101290.78
2022-08-21T07:44:50.780Z,101293.13
2022-08-21T07:47:43.219Z,101285.97
2022-08-21T07:50:24.592Z,101288.59
2022-08-21T07:53:12.795Z,101274.38
2022-08-21T07:55:53.599Z,101274.41
2022-08-21T07:58:42.979Z,101278.16
2022-08-21T08:01:24.252Z,101271.25
2022-08-21T08:07:15.991Z,101278.41
2022-08-21T08:10:05.939Z,101286.31
2022-08-21T08:12:49.611Z,101289.66
2022-08-21T08:15:39.553Z,101286.00
2022-08-21T08:18:21.042Z,101277.94
2022-08-21T08:21:16.475Z,101284.78
2022-08-21T08:24:18.991Z,101282.00
2022-08-21T08:27:02.629Z,101277.63
2022-08-21T08:29:50.105Z,101268.50
2022-08-21T08:32:34.004Z,101270.72
2022-08-21T08:35:22.367Z,101270.47
2022-08-21T08:38:07.447Z,101273.66
2022-08-21T08:41:23.031Z,101287.81
2022-08-21T08:44:12.589Z,101286.25
2022-08-21T08:47:00.615Z,101296.09
2022-08-21T08:50:03.003Z,101296.22
2022-08-21T08:53:00.283Z,101291.88
2022-08-21T08:55:45.287Z,101281.13
2022-08-21T08:58:46.619Z,101284.03
2022-08-21T09:01:28.625Z,101286.25
2022-08-21T09:04:19.443Z,101285.00
2022-08-21T09:07:31.531Z,101274.22
2022-08-21T09:10:45.636Z,101279.09
2022-08-21T09:13:56.001Z,101270.22
2022-08-21T09:17:02.359Z,101265.38
2022-08-21T09:20:06.751Z,101258.03
2022-08-21T09:23:08.621Z,101269.50
2022-08-21T09:26:07.568Z,101268.72
2022-08-21T09:29:04.298Z,101262.41
2022-08-21T09:31:45.747Z,101264.88
2022-08-21T09:34:38.633Z,101260.31
2022-08-21T09:37:25.617Z,101260.78
2022-08-21T09:40:34.788Z,101274.91
2022-08-21T09:43:18.826Z,101270.50
2022-08-21T09:46:18.642Z,101274.25
2022-08-21T09:49:06.799Z,101264.81
2022-08-21T09:52:02.406Z,101267.78
2022-08-21T09:54:47.589Z,101283.72
2022-08-21T09:57:46.623Z,101281.81
2022-08-21T10:00:38.088Z,101286.00
2022-08-21T10:03:28.872Z,101278.50
2022-08-21T10:06:17.860Z,101276.75
2022-08-21T10:09:18.843Z,101275.22
2022-08-21T10:12:20.589Z,101274.59
2022-08-21T10:15:21.435Z,101271.06
2022-08-21T10:18:02.573Z,101272.38
2022-08-21T10:21:25.569Z,101269.97
2022-08-21T10:24:31.087Z,101273.63
2022-08-21T10:27:33.284Z,101273.13
2022-08-21T10:31:01.621Z,101265.69
2022-08-21T10:33:59.695Z,101271.38
2022-08-21T10:37:23.611Z,101269.13
2022-08-21T10:40:30.284Z,101278.94
2022-08-21T10:43:48.636Z,101264.72
2022-08-21T10:46:52.698Z,101272.97
2022-08-21T10:50:03.006Z,101268.47
2022-08-21T10:52:59.047Z,101271.91
2022-08-21T10:55:55.142Z,101277.00
2022-08-21T10:58:44.866Z,101274.75
2022-08-21T11:01:41.615Z,101275.22
2022-08-21T11:04:49.497Z,101285.00
2022-08-21T11:07:45.991Z,101283.00
2022-08-21T11:10:59.174Z,101276.03
2022-08-21T11:17:22.256Z,101286.03
2022-08-21T11:20:22.623Z,101282.97
2022-08-21T11:23:24.704Z,101277.03
2022-08-21T11:26:16.064Z,101286.53
2022-08-21T11:29:23.748Z,101291.09
2022-08-21T11:32:10.239Z,101291.81
2022-08-21T11:35:12.690Z,101292.22
2022-08-21T11:37:56.710Z,101296.63
2022-08-21T11:40:46.875Z,101300.00
2022-08-21T11:43:53.047Z,101294.91
2022-08-21T11:46:54.714Z,101294.19
2022-08-21T11:49:42.723Z,101293.72
2022-08-21T11:52:37.247Z,101305.53
2022-08-21T11:55:17.736Z,101304.69
2022-08-21T11:58:28.740Z,101300.47
2022-08-21T12:01:33.406Z,101294.66
2022-08-21T12:04:43.127Z,101290.63
2022-08-21T12:07:43.772Z,101284.28
2022-08-21T12:10:41.032Z,101287.63
2022-08-21T12:13:42.026Z,101290.03
2022-08-21T12:16:40.866Z,101289.31
2022-08-21T12:19:37.676Z,101287.84
2022-08-21T12:22:34.637Z,101286.06
2022-08-21T12:25:27.284Z,101292.25
2022-08-21T12:28:18.498Z,101287.28
2022-08-21T12:31:05.715Z,101294.13
2022-08-21T12:33:47.736Z,101282.53
2022-08-21T12:36:57.035Z,101282.72
2022-08-21T12:39:40.214Z,101280.81
2022-08-21T12:42:35.485Z,101278.16
2022-08-21T12:45:40.747Z,101279.69
2022-08-21T12:48:42.654Z,101279.34
2022-08-21T12:51:30.292Z,101266.41
2022-08-21T12:54:17.038Z,101266.59
2022-08-21T12:57:31.798Z,101263.69
2022-08-21T13:00:21.658Z,101261.72
2022-08-21T13:03:04.277Z,101249.94
2022-08-21T13:05:50.650Z,101242.63
2022-08-21T13:08:39.517Z,101243.94
2022-08-21T13:11:33.707Z,101244.31
2022-08-21T13:14:24.800Z,101246.09
2022-08-21T13:17:20.324Z,101245.69
2022-08-21T13:20:11.758Z,101246.22
2022-08-21T13:23:06.539Z,101244.06
2022-08-21T13:25:50.852Z,101248.84
2022-08-21T13:28:53.229Z,101250.22
2022-08-21T13:31:37.807Z,101242.84
2022-08-21T13:34:28.128Z,101242.81
2022-08-21T13:37:13.235Z,101231.53
2022-08-21T13:40:00.900Z,101222.59
2022-08-21T13:42:42.130Z,101223.84
2022-08-21T13:45:38.769Z,101232.13
2022-08-21T13:48:24.379Z,101228.78
2022-08-21T13:51:17.299Z,101230.78
2022-08-21T13:53:59.798Z,101226.47
2022-08-21T13:56:55.702Z,101224.63
2022-08-21T13:59:42.975Z,101223.09
2022-08-21T14:02:31.751Z,101219.81
2022-08-21T14:05:12.809Z,101221.31
2022-08-21T14:08:30.434Z,101219.03
2022-08-21T14:11:12.867Z,101218.94
2022-08-21T14:14:06.194Z,101222.19
2022-08-21T14:17:25.017Z,101219.44
2022-08-21T14:20:21.090Z,101212.84
2022-08-21T14:23:10.977Z,101213.81
2022-08-21T14:25:54.573Z,101214.88
2022-08-21T14:28:48.828Z,101208.00
2022-08-21T14:31:41.823Z,101209.53
2022-08-21T14:34:36.350Z,101202.47
2022-08-21T14:37:16.784Z,101203.38
2022-08-21T14:40:04.873Z,101206.94
2022-08-21T14:42:48.810Z,101211.34
2022-08-21T14:45:44.764Z,101211.25
2022-08-21T14:48:27.107Z,101210.44
2022-08-21T14:51:14.849Z,101204.63
2022-08-21T14:53:55.751Z,101205.81
2022-08-21T14:56:47.747Z,101195.22
2022-08-21T14:59:29.797Z,101198.06
2022-08-21T15:02:17.839Z,101197.41
2022-08-21T15:05:00.122Z,101198.50
2022-08-21T15:07:48.239Z,101196.88
2022-08-21T15:10:29.467Z,101197.66
2022-08-21T15:13:16.860Z,101198.41
2022-08-21T15:16:00.893Z,101195.56
2022-08-21T15:18:50.295Z,101185.88
2022-08-21T15:21:31.333Z,101190.69
2022-08-21T15:24:18.837Z,101185.53
2022-08-21T15:27:01.937Z,101185.41
2022-08-21T15:29:54.235Z,101187.91
2022-08-21T15:32:36.783Z,101188.59
2022-08-21T15:35:24.930Z,101190.78
2022-08-21T15:38:06.289Z,101194.13
2022-08-21T15:41:01.631Z,101191.34
2022-08-21T15:43:50.743Z,101192.03
2022-08-21T15:46:38.910Z,101191.47
2022-08-21T15:49:22.003Z,101194.63
2022-08-21T15:52:10.815Z,101182.50
2022-08-21T15:54:52.304Z,101179.38
2022-08-21T15:57:38.907Z,101181.19
2022-08-21T16:00:24.278Z,101179.38
2022-08-21T16:03:16.065Z,101174.78
2022-08-21T16:05:59.857Z,101171.91
2022-08-21T16:08:47.936Z,101164.78
2022-08-21T16:11:29.012Z,101179.69
2022-08-21T16:14:23.369Z,101173.91
2022-08-21T16:17:04.554Z,101170.16
2022-08-21T16:19:53.030Z,101162.47
2022-08-21T16:22:47.972Z,101159.28
2022-08-21T16:25:35.877Z,101156.06
2022-08-21T16:28:23.863Z,101161.41
2022-08-21T16:31:11.912Z,101157.09
2022-08-21T16:34:00.998Z,101164.19
2022-08-21T16:36:48.133Z,101164.28
2022-08-21T16:39:29.209Z,101165.22
2022-08-21T16:42:21.862Z,101175.84
2022-08-21T16:45:03.803Z,101165.19
2022-08-21T16:47:52.043Z,101165.16
2022-08-21T16:50:34.205Z,101157.84
2022-08-21T16:53:20.875Z,101163.25
2022-08-21T16:56:08.571Z,101164.50
2022-08-21T16:58:57.928Z,101169.06
2022-08-21T17:01:40.891Z,101162.88
2022-08-21T17:04:28.938Z,101163.69
2022-08-21T17:07:10.273Z,101161.91
2022-08-21T17:09:59.105Z,101156.63
2022-08-21T17:12:41.558Z,101155.41
2022-08-21T17:15:34.924Z,101151.25
2022-08-21T17:18:20.278Z,101151.34
2022-08-21T17:21:09.227Z,101143.34
2022-08-21T17:24:04.842Z,101140.66
2022-08-21T17:26:51.922Z,101153.06
2022-08-21T17:29:41.190Z,101152.16
2022-08-21T17:32:32.517Z,101152.78
2022-08-21T17:35:15.179Z,101136.88
2022-08-21T17:38:01.928Z,101142.09
2022-08-21T17:40:46.681Z,101142.81
2022-08-21T17:43:36.002Z,101136.78
2022-08-21T17:46:24.424Z,101129.66
2022-08-21T17:49:16.154Z,101136.38
2022-08-21T17:52:01.404Z,101131.94
2022-08-21T17:54:50.661Z,101135.50
2022-08-21T17:57:34.841Z,101136.44
2022-08-21T18:00:25.949Z,101129.53
2022-08-21T18:03:20.859Z,101130.56
2022-08-21T18:06:08.990Z,101124.50
2022-08-21T18:08:51.251Z,101121.69
2022-08-21T18:11:38.973Z,101116.59
2022-08-21T18:14:21.235Z,101106.91
2022-08-21T18:17:09.031Z,101102.47
2022-08-21T18:19:50.237Z,101093.88
2022-08-21T18:22:43.836Z,101091.72
2022-08-21T18:25:31.211Z,101100.66
2022-08-21T18:28:14.238Z,101100.00
2022-08-21T18:31:27.855Z,101108.28
2022-08-21T18:34:19.563Z,101112.00
2022-08-21T18:37:09.235Z,101114.06
2022-08-21T18:39:50.314Z,101121.06
2022-08-21T18:42:55.683Z,101128.19
2022-08-21T18:45:38.072Z,101115.91
2022-08-21T18:48:29.382Z,101128.97
2022-08-21T18:51:11.391Z,101121.19
2022-08-21T18:54:00.879Z,101123.81
2022-08-21T18:56:42.041Z,101120.31
2022-08-21T18:59:34.097Z,101120.28
2022-08-21T19:02:16.265Z,101129.16
2022-08-21T19:05:05.382Z,101133.50
2022-08-21T19:07:47.984Z,101126.44
2022-08-21T19:10:36.653Z,101134.13
2022-08-21T19:13:21.096Z,101149.50
2022-08-21T19:16:12.261Z,101149.59
2022-08-21T19:18:53.020Z,101139.84
2022-08-21T19:21:43.648Z,101144.13
2022-08-21T19:24:39.886Z,101162.84
2022-08-21T19:27:37.892Z,101158.38
2022-08-21T19:30:19.398Z,101152.25
2022-08-21T19:33:06.878Z,101169.22
2022-08-21T19:35:48.234Z,101175.31
2022-08-21T19:38:43.015Z,101181.66
2022-08-21T19:41:25.223Z,101185.16
2022-08-21T19:44:15.061Z,101182.56
2022-08-21T19:50:17.506Z,101182.19
2022-08-21T19:52:59.148Z,101185.06
2022-08-21T19:55:50.960Z,101179.72
2022-08-21T19:58:35.517Z,101187.94
2022-08-21T20:01:28.041Z,101181.88
2022-08-21T20:04:18.242Z,101178.16
2022-08-21T20:07:08.235Z,101176.56
2022-08-21T20:10:08.057Z,101176.47
2022-08-21T20:12:58.034Z,101176.56
2022-08-21T20:15:39.017Z,101179.34
2022-08-21T20:18:32.676Z,101174.84
2022-08-21T20:21:14.239Z,101179.00
2022-08-21T20:24:11.501Z,101175.59
2022-08-21T20:27:05.979Z,101181.84
2022-08-21T20:29:47.715Z,101175.47
2022-08-21T20:32:39.080Z,101178.41
2022-08-21T20:35:23.956Z,101188.09
2022-08-21T20:41:30.281Z,101184.63
2022-08-21T20:44:20.051Z,101184.63
2022-08-21T20:47:01.012Z,101181.09
2022-08-21T20:50:10.434Z,101178.50
2022-08-21T20:52:58.719Z,101168.56
2022-08-21T20:55:57.256Z,101168.63
2022-08-21T20:58:49.687Z,101171.97
2022-08-21T21:01:41.076Z,101175.66
2022-08-21T21:04:39.025Z,101169.41
2022-08-21T21:07:45.956Z,101170.38
2022-08-21T21:10:44.859Z,101173.06
2022-08-21T21:13:47.059Z,101164.31
2022-08-21T21:16:52.205Z,101162.56
2022-08-21T21:19:40.215Z,101158.88
2022-08-21T21:22:34.309Z,101163.97
2022-08-21T21:25:47.041Z,101164.19
2022-08-21T21:28:55.144Z,101155.38
2022-08-21T21:31:43.506Z,101154.66
2022-08-21T21:34:24.332Z,101160.03
2022-08-21T21:40:26.373Z,101149.44
2022-08-21T21:43:18.332Z,101137.06
2022-08-21T21:46:32.542Z,101146.72
2022-08-21T21:49:39.080Z,101154.56
2022-08-21T21:53:00.020Z,101142.13
2022-08-21T21:55:53.591Z,101144.78
2022-08-21T21:58:45.973Z,101130.78
2022-08-21T22:01:44.118Z,101135.34
2022-08-21T22:04:38.992Z,101137.19
2022-08-21T22:07:55.231Z,101132.91
2022-08-21T22:10:47.076Z,101130.84
2022-08-21T22:13:49.061Z,101128.16
2022-08-21T22:16:30.468Z,101129.28
2022-08-21T22:19:29.324Z,101135.59
2022-08-21T22:22:20.018Z,101132.69
2022-08-21T22:25:35.954Z,101122.19
2022-08-21T22:28:31.030Z,101122.06
2022-08-21T22:31:34.943Z,101129.31
2022-08-21T22:34:26.755Z,101126.66
2022-08-21T22:37:14.399Z,101131.00
2022-08-21T22:40:05.384Z,101124.88
2022-08-21T22:42:46.492Z,101121.13
2022-08-21T22:45:39.808Z,101110.72
2022-08-21T22:48:27.118Z,101107.25
2022-08-21T22:51:32.339Z,101094.00
2022-08-21T22:54:16.682Z,101092.91
2022-08-21T22:57:15.466Z,101100.81
2022-08-21T23:00:04.118Z,101092.25
2022-08-21T23:02:59.493Z,101085.34
2022-08-21T23:05:44.414Z,101083.66
2022-08-21T23:11:50.742Z,101080.19
2022-08-21T23:14:42.824Z,101091.69
2022-08-21T23:17:51.742Z,101093.47
2022-08-21T23:21:16.387Z,101079.28
2022-08-21T23:24:26.993Z,101071.19
2022-08-21T23:27:46.042Z,101083.63
2022-08-21T23:30:47.544Z,101080.16
2022-08-21T23:33:42.122Z,101090.97
2022-08-21T23:36:58.747Z,101090.13
2022-08-21T23:40:04.436Z,101088.16
2022-08-21T23:43:18.563Z,101070.63
2022-08-21T23:46:15.060Z,101063.63
2022-08-21T23:49:19.150Z,101071.56
2022-08-21T23:52:17.769Z,101078.84
2022-08-21T23:55:43.484Z,101085.06
2022-08-21T23:59:28.163Z,101082.31
